Time;durP1;ratioP1;P1;durP2;ratioP2;P2;SDS_P1;SDS_P2;PMS_P1;PMS_P2;Temp;Humidity;BMP_temperature;BMP_pressure;BME280_temperature;BME280_humidity;BME280_pressure;Samples;Min_cycle;Max_cycle;Signal;HPM_P1;HPM_P2
2022/03/08 00:00:22;;;;;;;11.30;7.28;;;;;;;;;;5042540;28;20092;-85
2022/03/08 00:02:48;;;;;;;13.68;7.30;;;;;;;;;;5039998;28;20060;-84
2022/03/08 00:05:14;;;;;;;9.80;6.72;;;;;;;;;;5045570;28;20036;-83
2022/03/08 00:07:40;;;;;;;9.98;6.95;;;;;;;;;;5040255;28;20041;-84
2022/03/08 00:10:08;;;;;;;10.88;7.75;;;;;;;;;;5062815;28;20037;-84
2022/03/08 00:12:34;;;;;;;10.75;6.82;;;;;;;;;;5041034;28;20033;-84
2022/03/08 00:15:01;;;;;;;10.75;7.20;;;;;;;;;;5044630;28;20040;-83
2022/03/08 00:17:27;;;;;;;10.60;6.75;;;;;;;;;;5055853;28;20083;-84
2022/03/08 00:19:53;;;;;;;12.77;7.05;;;;;;;;;;5043350;28;20122;-85
2022/03/08 00:22:19;;;;;;;9.18;6.95;;;;;;;;;;5045899;28;20091;-85
2022/03/08 00:24:46;;;;;;;10.43;6.78;;;;;;;;;;5062383;28;20119;-84
2022/03/08 00:27:12;;;;;;;13.40;8.27;;;;;;;;;;5045525;28;20047;-85
2022/03/08 00:29:38;;;;;;;11.35;7.75;;;;;;;;;;5046111;28;20041;-84
2022/03/08 00:32:04;;;;;;;12.23;8.20;;;;;;;;;;5042769;28;20471;-85
2022/03/08 00:34:30;;;;;;;10.73;7.63;;;;;;;;;;5045537;28;20040;-85
2022/03/08 00:36:56;;;;;;;10.13;6.82;;;;;;;;;;5046499;28;20135;-85
2022/03/08 00:39:22;;;;;;;10.60;6.97;;;;;;;;;;5061694;28;20156;-83
2022/03/08 00:41:49;;;;;;;11.40;7.43;;;;;;;;;;5058712;28;20029;-83
2022/03/08 00:44:15;;;;;;;12.00;8.13;;;;;;;;;;5050647;28;20060;-86
2022/03/08 00:46:41;;;;;;;13.20;8.30;;;;;;;;;;5045565;28;20555;-86
2022/03/08 00:49:07;;;;;;;11.95;7.65;;;;;;;;;;5045381;28;20037;-83
2022/03/08 00:51:33;;;;;;;13.35;7.60;;;;;;;;;;5065115;28;20040;-85
2022/03/08 00:53:59;;;;;;;9.80;7.18;;;;;;;;;;5047654;28;20041;-85
2022/03/08 00:56:25;;;;;;;12.77;7.68;;;;;;;;;;5045258;28;20039;-85
2022/03/08 00:58:52;;;;;;;14.23;7.93;;;;;;;;;;5063850;28;20051;-86
2022/03/08 01:01:18;;;;;;;11.85;8.38;;;;;;;;;;5062766;28;20047;-85
2022/03/08 01:03:44;;;;;;;10.68;7.20;;;;;;;;;;5073722;28;20037;-83
2022/03/08 01:06:13;;;;;;;11.93;7.65;;;;;;;;;;5054887;28;20552;-85
2022/03/08 01:08:39;;;;;;;11.82;7.82;;;;;;;;;;5043871;28;20170;-86
2022/03/08 01:11:05;;;;;;;12.15;7.50;;;;;;;;;;5062453;28;20037;-85
2022/03/08 01:13:31;;;;;;;9.82;7.15;;;;;;;;;;5080417;28;20628;-86
2022/03/08 01:15:57;;;;;;;14.57;8.45;;;;;;;;;;5062242;28;20039;-85
2022/03/08 01:18:24;;;;;;;12.85;7.78;;;;;;;;;;5060901;28;20051;-82
2022/03/08 01:20:50;;;;;;;12.57;7.30;;;;;;;;;;5071305;28;20044;-81
2022/03/08 01:23:16;;;;;;;12.30;8.07;;;;;;;;;;5069875;28;20085;-84
2022/03/08 01:25:42;;;;;;;13.13;7.18;;;;;;;;;;5042914;28;20040;-86
2022/03/08 01:28:08;;;;;;;11.20;7.38;;;;;;;;;;5078816;28;20048;-85
2022/03/08 01:30:35;;;;;;;11.60;7.55;;;;;;;;;;5078890;28;20075;-85
2022/03/08 01:33:01;;;;;;;11.63;7.68;;;;;;;;;;5044408;28;20047;-85
2022/03/08 01:35:27;;;;;;;11.68;7.90;;;;;;;;;;5044477;28;20036;-85
2022/03/08 01:37:54;;;;;;;15.07;8.20;;;;;;;;;;5035696;28;20111;-85
2022/03/08 01:40:20;;;;;;;10.95;6.78;;;;;;;;;;5044309;28;20089;-84
2022/03/08 01:42:47;;;;;;;10.50;7.50;;;;;;;;;;5044162;28;20051;-84
2022/03/08 01:45:15;;;;;;;13.07;8.57;;;;;;;;;;5060691;28;20043;-84
2022/03/08 01:47:41;;;;;;;11.60;7.82;;;;;;;;;;5078723;28;20040;-85
2022/03/08 01:50:07;;;;;;;13.77;8.15;;;;;;;;;;5044342;28;20036;-84
2022/03/08 01:52:34;;;;;;;11.10;7.75;;;;;;;;;;5060293;28;20067;-84
2022/03/08 01:55:00;;;;;;;12.85;7.97;;;;;;;;;;5059594;28;20042;-83
2022/03/08 01:57:26;;;;;;;15.65;9.38;;;;;;;;;;5040933;28;20043;-85
2022/03/08 01:59:53;;;;;;;13.73;9.18;;;;;;;;;;5041241;28;20119;-86
2022/03/08 02:02:19;;;;;;;12.85;8.05;;;;;;;;;;5053673;28;20481;-84
2022/03/08 02:04:46;;;;;;;13.20;7.97;;;;;;;;;;5045706;28;20071;-85
2022/03/08 02:07:12;;;;;;;15.85;9.43;;;;;;;;;;5044248;28;20041;-84
2022/03/08 02:09:38;;;;;;;15.82;8.88;;;;;;;;;;5060201;28;20035;-85
2022/03/08 02:12:05;;;;;;;14.25;8.13;;;;;;;;;;5059853;28;20067;-85
2022/03/08 02:14:31;;;;;;;20.33;9.50;;;;;;;;;;5061684;28;20138;-85
2022/03/08 02:16:58;;;;;;;14.13;8.93;;;;;;;;;;5059483;28;20024;-82
2022/03/08 02:19:25;;;;;;;13.70;8.82;;;;;;;;;;5056002;28;20012;-82
2022/03/08 02:21:51;;;;;;;14.00;8.60;;;;;;;;;;5044707;28;20041;-85
2022/03/08 02:24:18;;;;;;;12.75;8.23;;;;;;;;;;5043056;28;20033;-85
2022/03/08 02:26:45;;;;;;;14.80;9.18;;;;;;;;;;5043781;28;20036;-86
2022/03/08 02:29:11;;;;;;;12.27;7.60;;;;;;;;;;5034630;28;20041;-85
2022/03/08 02:31:37;;;;;;;15.45;8.93;;;;;;;;;;5035524;28;20072;-87
2022/03/08 02:34:04;;;;;;;13.20;9.23;;;;;;;;;;5043485;28;20044;-86
2022/03/08 02:36:30;;;;;;;14.90;9.40;;;;;;;;;;5043577;28;20048;-85
2022/03/08 02:38:56;;;;;;;14.63;8.68;;;;;;;;;;5059678;28;20040;-85
2022/03/08 02:41:25;;;;;;;14.50;8.63;;;;;;;;;;5059557;28;20048;-85
2022/03/08 02:43:52;;;;;;;16.45;9.52;;;;;;;;;;5060129;28;20050;-85
2022/03/08 02:46:18;;;;;;;14.20;9.07;;;;;;;;;;5043232;28;20046;-86
2022/03/08 02:48:44;;;;;;;13.63;8.85;;;;;;;;;;5060222;28;20037;-86
2022/03/08 02:51:10;;;;;;;15.85;9.13;;;;;;;;;;5059693;28;20082;-85
2022/03/08 02:53:36;;;;;;;16.63;10.07;;;;;;;;;;5040382;28;20037;-86
2022/03/08 02:56:02;;;;;;;15.02;9.23;;;;;;;;;;5043318;28;20497;-85
2022/03/08 02:58:28;;;;;;;16.08;9.70;;;;;;;;;;5042841;28;20486;-86
2022/03/08 03:00:54;;;;;;;17.35;9.13;;;;;;;;;;5059749;28;20425;-84
2022/03/08 03:03:20;;;;;;;14.98;8.60;;;;;;;;;;5059697;28;20418;-85
2022/03/08 03:05:46;;;;;;;14.35;9.50;;;;;;;;;;5051525;28;20119;-86
2022/03/08 03:08:13;;;;;;;15.48;9.63;;;;;;;;;;5052979;28;20033;-86
2022/03/08 03:10:39;;;;;;;15.93;9.60;;;;;;;;;;5043015;28;20040;-86
2022/03/08 03:13:05;;;;;;;17.50;10.07;;;;;;;;;;5043215;28;20552;-85
2022/03/08 03:15:31;;;;;;;19.67;10.43;;;;;;;;;;5059717;28;20657;-86
2022/03/08 03:17:58;;;;;;;15.32;9.38;;;;;;;;;;5030035;28;20107;-85
2022/03/08 03:20:26;;;;;;;15.50;9.45;;;;;;;;;;5054394;28;20032;-86
2022/03/08 03:22:52;;;;;;;15.73;10.15;;;;;;;;;;5051646;28;20132;-82
2022/03/08 03:25:19;;;;;;;17.35;10.55;;;;;;;;;;5049073;28;20050;-82
2022/03/08 03:27:45;;;;;;;16.42;10.32;;;;;;;;;;5063089;28;20124;-82
2022/03/08 03:30:13;;;;;;;17.35;9.48;;;;;;;;;;5078556;28;20040;-86
2022/03/08 03:32:40;;;;;;;19.30;10.75;;;;;;;;;;5058418;28;20033;-86
2022/03/08 03:35:06;;;;;;;15.52;10.02;;;;;;;;;;5043435;28;20036;-85
2022/03/08 03:37:33;;;;;;;17.10;10.65;;;;;;;;;;5037347;28;20048;-85
2022/03/08 03:39:59;;;;;;;19.40;10.07;;;;;;;;;;5042904;28;20042;-85
2022/03/08 03:42:25;;;;;;;19.58;11.68;;;;;;;;;;5049792;28;20402;-86
2022/03/08 03:44:51;;;;;;;19.08;11.02;;;;;;;;;;5027528;28;20033;-86
2022/03/08 03:47:17;;;;;;;19.27;12.00;;;;;;;;;;5044349;28;20044;-86
2022/03/08 03:49:43;;;;;;;18.90;12.07;;;;;;;;;;5045838;28;20457;-85
2022/03/08 03:52:12;;;;;;;17.60;11.57;;;;;;;;;;5061837;28;20079;-84
2022/03/08 03:54:38;;;;;;;17.23;11.55;;;;;;;;;;5043092;28;20617;-85
2022/03/08 03:57:05;;;;;;;17.73;10.82;;;;;;;;;;5063734;28;20036;-82
2022/03/08 03:59:31;;;;;;;16.23;11.02;;;;;;;;;;5064688;28;20047;-84
2022/03/08 04:01:57;;;;;;;20.75;12.48;;;;;;;;;;5063727;28;20048;-83
2022/03/08 04:04:23;;;;;;;20.25;12.50;;;;;;;;;;5079460;28;20051;-85
2022/03/08 04:06:49;;;;;;;21.35;12.98;;;;;;;;;;5061889;28;20064;-84
2022/03/08 04:09:15;;;;;;;16.48;11.13;;;;;;;;;;5044106;28;20494;-84
2022/03/08 04:11:44;;;;;;;19.98;11.57;;;;;;;;;;5075419;28;20029;-85
2022/03/08 04:14:12;;;;;;;19.25;12.05;;;;;;;;;;5065691;28;20040;-84
2022/03/08 04:16:39;;;;;;;20.15;12.63;;;;;;;;;;5082536;28;20079;-84
2022/03/08 04:19:05;;;;;;;21.75;12.95;;;;;;;;;;5063499;28;20083;-86
2022/03/08 04:21:32;;;;;;;19.02;11.95;;;;;;;;;;5045884;28;20055;-87
2022/03/08 04:23:59;;;;;;;18.25;12.27;;;;;;;;;;5059434;28;20119;-85
2022/03/08 04:26:25;;;;;;;19.95;12.50;;;;;;;;;;5058618;28;20072;-87
2022/03/08 04:28:51;;;;;;;20.58;12.93;;;;;;;;;;5054531;28;20048;-86
2022/03/08 04:31:17;;;;;;;19.80;13.00;;;;;;;;;;5046272;28;20612;-86
2022/03/08 04:33:44;;;;;;;20.63;13.68;;;;;;;;;;5045122;28;20100;-87
2022/03/08 04:36:10;;;;;;;20.33;12.73;;;;;;;;;;5044696;28;20036;-87
2022/03/08 04:38:36;;;;;;;20.42;12.95;;;;;;;;;;5062079;28;20040;-87
2022/03/08 04:41:05;;;;;;;19.38;12.98;;;;;;;;;;5044324;28;20108;-86
2022/03/08 04:43:32;;;;;;;20.58;12.85;;;;;;;;;;5045623;28;20123;-87
2022/03/08 04:45:58;;;;;;;20.55;12.48;;;;;;;;;;5046378;28;20048;-87
2022/03/08 04:48:24;;;;;;;21.48;13.13;;;;;;;;;;5042727;28;20044;-87
2022/03/08 04:50:50;;;;;;;19.30;13.30;;;;;;;;;;5044997;28;20040;-87
2022/03/08 04:53:19;;;;;;;21.65;13.40;;;;;;;;;;5043647;28;20445;-86
2022/03/08 04:55:45;;;;;;;25.50;14.32;;;;;;;;;;5033937;28;20060;-86
2022/03/08 04:58:14;;;;;;;22.33;12.77;;;;;;;;;;5032049;28;20051;-86
2022/03/08 05:00:40;;;;;;;21.35;13.20;;;;;;;;;;5032691;28;20056;-87
2022/03/08 05:03:14;;;;;;;26.65;15.00;;;;;;;;;;5055930;28;20047;-86
2022/03/08 05:05:43;;;;;;;18.85;12.77;;;;;;;;;;5047697;28;20042;-86
2022/03/08 05:08:20;;;;;;;19.27;12.75;;;;;;;;;;5052689;28;20086;-87
2022/03/08 05:10:52;;;;;;;20.60;12.93;;;;;;;;;;5054610;28;20064;-86
2022/03/08 05:13:22;;;;;;;24.92;13.57;;;;;;;;;;5040147;28;20033;-86
2022/03/08 05:15:51;;;;;;;18.58;12.60;;;;;;;;;;5060746;28;20040;-88
2022/03/08 05:18:20;;;;;;;24.55;13.63;;;;;;;;;;5043969;28;20467;-86
2022/03/08 05:20:49;;;;;;;24.15;13.93;;;;;;;;;;5044237;28;20048;-88
2022/03/08 05:23:18;;;;;;;24.20;14.82;;;;;;;;;;5061550;28;20045;-86
2022/03/08 05:25:46;;;;;;;22.70;13.95;;;;;;;;;;5058801;28;20041;-85
2022/03/08 05:28:13;;;;;;;22.23;14.07;;;;;;;;;;5032931;28;20076;-86
2022/03/08 05:30:39;;;;;;;21.08;12.85;;;;;;;;;;5049248;28;20037;-86
2022/03/08 05:33:08;;;;;;;22.90;13.65;;;;;;;;;;5041090;28;20198;-84
2022/03/08 05:35:37;;;;;;;24.67;13.55;;;;;;;;;;5062543;28;20036;-83
2022/03/08 05:38:06;;;;;;;21.88;13.88;;;;;;;;;;5073717;28;20084;-83
2022/03/08 05:40:39;;;;;;;20.73;13.02;;;;;;;;;;5047434;28;20064;-87
2022/03/08 05:43:05;;;;;;;20.95;12.52;;;;;;;;;;5060204;28;20033;-86
2022/03/08 05:45:34;;;;;;;21.30;13.50;;;;;;;;;;5059212;28;20174;-86
2022/03/08 05:48:00;;;;;;;22.58;13.40;;;;;;;;;;5028456;28;20102;-87
2022/03/08 05:50:27;;;;;;;22.63;13.75;;;;;;;;;;5059686;28;20037;-86
2022/03/08 05:53:03;;;;;;;;;;;;;;;;;;;;;
2022/03/08 05:55:45;;;;;;;;;;;;;;;;;;;;;
2022/03/08 05:58:24;;;;;;;22.35;13.23;;;;;;;;;;5053146;28;20138;-87
2022/03/08 06:00:53;;;;;;;22.15;13.23;;;;;;;;;;5042772;28;21180;-86
2022/03/08 06:03:24;;;;;;;22.38;12.50;;;;;;;;;;5042087;28;20463;-87
2022/03/08 06:05:53;;;;;;;23.58;13.20;;;;;;;;;;5044045;28;20044;-86
2022/03/08 06:08:27;;;;;;;22.65;14.32;;;;;;;;;;5042860;28;20044;-87
2022/03/08 06:10:53;;;;;;;21.13;13.48;;;;;;;;;;5060561;28;20040;-87
2022/03/08 06:13:22;;;;;;;22.17;13.05;;;;;;;;;;5048071;28;20037;-89
2022/03/08 06:15:51;;;;;;;22.90;13.70;;;;;;;;;;5060052;28;20125;-88
2022/03/08 06:18:20;;;;;;;20.95;13.65;;;;;;;;;;5044275;28;20048;-90
2022/03/08 06:21:10;;;;;;;18.42;12.30;;;;;;;;;;5041196;28;20067;-89
2022/03/08 06:24:12;;;;;;;18.25;12.80;;;;;;;;;;5046612;28;20044;-89
2022/03/08 06:26:54;;;;;;;21.02;12.95;;;;;;;;;;5109475;27;20577;-64
2022/03/08 06:29:20;;;;;;;22.23;13.43;;;;;;;;;;5109664;28;20503;-64
2022/03/08 06:31:51;;;;;;;21.20;14.10;;;;;;;;;;5107284;28;20043;-65
2022/03/08 06:34:18;;;;;;;20.58;12.90;;;;;;;;;;5102213;28;20032;-65
2022/03/08 06:36:46;;;;;;;20.83;13.45;;;;;;;;;;5088162;28;20048;-64
2022/03/08 06:39:13;;;;;;;21.75;14.48;;;;;;;;;;5071351;28;20595;-62
2022/03/08 06:41:39;;;;;;;20.10;13.80;;;;;;;;;;5088602;28;20032;-62
2022/03/08 06:44:05;;;;;;;20.70;14.23;;;;;;;;;;5086869;28;20067;-62
2022/03/08 06:46:31;;;;;;;23.13;14.20;;;;;;;;;;5092943;28;20074;-64
2022/03/08 06:48:58;;;;;;;21.75;13.73;;;;;;;;;;5088987;28;20089;-64
2022/03/08 06:51:24;;;;;;;21.33;14.38;;;;;;;;;;5091189;28;20036;-64
2022/03/08 06:53:50;;;;;;;23.17;14.75;;;;;;;;;;5088623;28;20040;-64
2022/03/08 06:56:16;;;;;;;20.77;14.00;;;;;;;;;;5070581;28;20055;-61
2022/03/08 06:58:43;;;;;;;23.92;13.70;;;;;;;;;;5089630;28;20471;-63
2022/03/08 07:01:09;;;;;;;23.98;14.90;;;;;;;;;;5086483;28;20124;-62
2022/03/08 07:03:35;;;;;;;20.48;13.80;;;;;;;;;;5095172;28;20037;-63
2022/03/08 07:06:02;;;;;;;21.17;13.93;;;;;;;;;;5088080;28;20040;-62
2022/03/08 07:08:29;;;;;;;21.52;14.00;;;;;;;;;;5087771;28;20176;-65
2022/03/08 07:10:55;;;;;;;24.75;14.27;;;;;;;;;;5088396;28;20044;-63
2022/03/08 07:13:22;;;;;;;21.02;13.85;;;;;;;;;;5069248;28;20393;-63
2022/03/08 07:15:48;;;;;;;23.23;13.60;;;;;;;;;;5083733;28;20083;-62
2022/03/08 07:18:14;;;;;;;21.08;14.02;;;;;;;;;;5085673;28;20047;-63
2022/03/08 07:20:40;;;;;;;19.95;14.18;;;;;;;;;;5088186;28;20509;-61
2022/03/08 07:23:06;;;;;;;21.85;14.07;;;;;;;;;;5087421;28;20405;-64
2022/03/08 07:25:34;;;;;;;20.85;14.23;;;;;;;;;;5087697;28;20124;-62
2022/03/08 07:28:01;;;;;;;21.88;14.75;;;;;;;;;;5086928;28;20251;-65
2022/03/08 07:38:17;;;;;;;22.38;13.93;;;;;;;;;;5091764;28;20569;-64
2022/03/08 07:41:37;;;;;;;20.95;13.95;;;;;;;;;;5056688;28;20040;-64
2022/03/08 07:44:43;;;;;;;21.33;14.07;;;;;;;;;;5074003;28;20165;-62
2022/03/08 07:47:11;;;;;;;20.00;13.48;;;;;;;;;;5038652;28;20165;-64
2022/03/08 07:52:45;;;;;;;20.42;13.52;;;;;;;;;;5039238;28;20041;-63
2022/03/08 07:55:18;;;;;;;19.92;14.40;;;;;;;;;;5039050;28;20032;-63
2022/03/08 07:57:53;;;;;;;17.95;12.38;;;;;;;;;;5048949;28;20532;-63
2022/03/08 08:04:50;;;;;;;;;;;;;;;;;;;;;
2022/03/08 08:07:40;;;;;;;18.67;13.05;;;;;;;;;;5048697;28;20048;-63
2022/03/08 08:10:10;;;;;;;22.70;14.07;;;;;;;;;;5020133;28;20528;-65
2022/03/08 08:12:36;;;;;;;19.70;13.30;;;;;;;;;;5027473;28;20037;-64
2022/03/08 08:15:03;;;;;;;19.60;13.15;;;;;;;;;;5034843;28;20032;-64
2022/03/08 08:17:30;;;;;;;19.35;13.43;;;;;;;;;;5067027;28;20128;-64
2022/03/08 08:19:56;;;;;;;20.40;13.32;;;;;;;;;;5070402;28;20036;-64
2022/03/08 08:22:23;;;;;;;17.98;12.90;;;;;;;;;;5071353;28;20043;-63
2022/03/08 08:24:50;;;;;;;17.50;12.88;;;;;;;;;;5037203;28;20544;-63
2022/03/08 08:27:17;;;;;;;16.40;12.10;;;;;;;;;;5028706;28;20114;-62
2022/03/08 08:29:43;;;;;;;18.05;11.65;;;;;;;;;;5051254;28;20040;-65
2022/03/08 08:32:09;;;;;;;15.13;11.57;;;;;;;;;;5064239;28;20044;-63
2022/03/08 08:34:35;;;;;;;13.70;11.15;;;;;;;;;;5072278;28;20067;-64
2022/03/08 08:37:01;;;;;;;15.68;11.23;;;;;;;;;;5068684;28;20074;-64
2022/03/08 08:39:28;;;;;;;13.70;11.45;;;;;;;;;;5037922;28;20037;-63
2022/03/08 08:41:56;;;;;;;13.52;11.23;;;;;;;;;;5032565;28;20131;-62
2022/03/08 08:44:26;;;;;;;12.93;11.07;;;;;;;;;;5039538;28;20715;-62
2022/03/08 08:46:56;;;;;;;15.93;11.60;;;;;;;;;;5038917;28;20036;-64
2022/03/08 08:49:25;;;;;;;13.75;10.68;;;;;;;;;;5053534;28;20040;-62
2022/03/08 08:51:52;;;;;;;14.40;11.20;;;;;;;;;;5055662;28;20520;-64
2022/03/08 08:54:19;;;;;;;15.07;11.55;;;;;;;;;;5034910;28;20032;-62
2022/03/08 08:57:04;;;;;;;13.75;11.13;;;;;;;;;;5029751;28;20040;-61
2022/03/08 09:02:47;;;;;;;14.80;10.95;;;;;;;;;;5064480;28;20071;-63
2022/03/08 09:05:14;;;;;;;13.45;10.90;;;;;;;;;;5049082;28;20036;-62
2022/03/08 09:07:42;;;;;;;12.02;10.73;;;;;;;;;;5038614;28;20036;-62
2022/03/08 09:10:16;;;;;;;12.48;10.80;;;;;;;;;;5069890;28;20489;-62
2022/03/08 09:13:12;;;;;;;12.85;10.73;;;;;;;;;;5049340;28;20036;-64
2022/03/08 09:16:20;;;;;;;11.23;10.02;;;;;;;;;;5069119;28;20556;-63
2022/03/08 09:37:43;;;;;;;11.20;10.10;;;;;;;;;;5091165;26;20040;-63
2022/03/08 09:40:38;;;;;;;11.50;9.90;;;;;;;;;;5063627;28;20063;-63
2022/03/08 09:46:36;;;;;;;13.75;10.27;;;;;;;;;;4977319;28;20133;-63
2022/03/08 09:49:18;;;;;;;10.70;9.68;;;;;;;;;;5054465;28;20036;-63
2022/03/08 09:51:46;;;;;;;10.88;9.60;;;;;;;;;;5054948;28;20036;-64
2022/03/08 09:54:14;;;;;;;14.52;10.25;;;;;;;;;;5055286;28;20032;-63
2022/03/08 10:00:22;;;;;;;10.05;9.05;;;;;;;;;;5071977;28;20161;-64
2022/03/08 10:03:35;;;;;;;10.77;9.68;;;;;;;;;;5030514;28;20037;-64
2022/03/08 10:06:10;;;;;;;10.18;9.18;;;;;;;;;;4956467;28;20038;-62
2022/03/08 10:12:46;;;;;;;9.77;8.80;;;;;;;;;;5101607;22;20194;-65
2022/03/08 10:15:19;;;;;;;8.75;7.85;;;;;;;;;;5050473;28;20666;-64
2022/03/08 10:17:45;;;;;;;8.80;7.90;;;;;;;;;;5052184;28;20480;-65
2022/03/08 10:20:12;;;;;;;8.60;7.80;;;;;;;;;;5066983;28;20040;-65
2022/03/08 10:22:39;;;;;;;10.13;7.72;;;;;;;;;;5049841;28;20039;-65
2022/03/08 10:25:25;;;;;;;9.13;8.23;;;;;;;;;;5065128;28;20061;-64
2022/03/08 10:27:55;;;;;;;7.75;6.95;;;;;;;;;;5062398;28;20481;-63
2022/03/08 10:30:47;;;;;;;7.65;6.85;;;;;;;;;;5058194;28;20036;-64
2022/03/08 10:33:19;;;;;;;8.30;7.50;;;;;;;;;;5053473;28;20039;-64
2022/03/08 10:35:56;;;;;;;7.68;6.97;;;;;;;;;;5058556;28;20047;-64
2022/03/08 10:38:25;;;;;;;7.57;6.90;;;;;;;;;;5071286;28;20426;-64
2022/03/08 10:40:53;;;;;;;7.20;6.50;;;;;;;;;;5058075;28;20101;-64
2022/03/08 10:43:21;;;;;;;6.57;5.97;;;;;;;;;;5046966;28;20068;-64
2022/03/08 10:45:49;;;;;;;6.90;6.28;;;;;;;;;;5093104;28;20047;-64
2022/03/08 10:48:18;;;;;;;8.07;6.80;;;;;;;;;;5092834;28;20111;-63
2022/03/08 10:50:45;;;;;;;6.90;6.28;;;;;;;;;;5092743;28;20043;-64
2022/03/08 10:53:13;;;;;;;6.75;5.85;;;;;;;;;;5092712;28;20040;-64
2022/03/08 10:55:43;;;;;;;7.57;6.10;;;;;;;;;;5085309;28;20125;-66
2022/03/08 10:58:25;;;;;;;6.45;5.78;;;;;;;;;;5055334;28;20404;-64
2022/03/08 11:04:31;;;;;;;6.88;6.28;;;;;;;;;;5006324;28;20079;-64
2022/03/08 11:07:00;;;;;;;6.10;5.60;;;;;;;;;;5052720;28;20036;-66
2022/03/08 11:09:30;;;;;;;6.20;5.68;;;;;;;;;;5054116;28;20036;-65
2022/03/08 11:12:01;;;;;;;7.03;6.17;;;;;;;;;;5074461;28;20048;-65
2022/03/08 11:14:27;;;;;;;6.43;5.88;;;;;;;;;;5070023;28;20055;-67
2022/03/08 11:16:53;;;;;;;6.57;5.93;;;;;;;;;;5052466;28;20093;-67
2022/03/08 11:19:26;;;;;;;6.43;5.82;;;;;;;;;;5054857;28;20040;-64
2022/03/08 11:21:57;;;;;;;6.97;5.32;;;;;;;;;;5051553;28;20036;-65
2022/03/08 11:24:25;;;;;;;5.93;5.40;;;;;;;;;;5047188;28;20047;-65
2022/03/08 11:26:51;;;;;;;4.95;4.55;;;;;;;;;;5050187;28;20044;-65
2022/03/08 11:29:19;;;;;;;6.28;4.93;;;;;;;;;;5055868;28;20569;-67
2022/03/08 11:31:47;;;;;;;6.30;5.20;;;;;;;;;;5078459;28;20032;-67
2022/03/08 11:34:18;;;;;;;5.20;4.70;;;;;;;;;;5089872;28;20036;-72
2022/03/08 11:36:53;;;;;;;4.82;4.32;;;;;;;;;;5084333;28;20408;-67
2022/03/08 11:39:22;;;;;;;5.38;4.68;;;;;;;;;;5094457;28;20032;-67
2022/03/08 11:41:51;;;;;;;4.78;4.38;;;;;;;;;;5093485;28;20035;-66
2022/03/08 11:44:22;;;;;;;5.03;4.55;;;;;;;;;;5058009;28;20123;-66
2022/03/08 11:47:03;;;;;;;4.75;4.30;;;;;;;;;;5068666;28;20055;-66
2022/03/08 11:53:17;;;;;;;5.10;4.60;;;;;;;;;;5092566;28;20023;-66
2022/03/08 11:56:25;;;;;;;4.97;4.57;;;;;;;;;;5052355;28;20568;-65
2022/03/08 11:59:32;;;;;;;5.50;4.88;;;;;;;;;;5081868;28;20500;-65
2022/03/08 12:02:28;;;;;;;4.93;4.50;;;;;;;;;;5075973;28;20050;-63
2022/03/08 12:05:03;;;;;;;4.95;4.47;;;;;;;;;;5089536;28;20123;-64
2022/03/08 12:07:56;;;;;;;5.32;4.63;;;;;;;;;;5068772;28;20029;-65
2022/03/08 12:10:47;;;;;;;4.90;4.50;;;;;;;;;;5071112;28;20036;-65
2022/03/08 12:13:24;;;;;;;;;;;;;;;;;;5056767;28;20040;-65
2022/03/08 12:16:13;;;;;;;4.80;4.35;;;;;;;;;;5056974;28;19916;-63
2022/03/08 12:18:50;;;;;;;6.40;4.28;;;;;;;;;;5053842;28;20047;-64
2022/03/08 12:21:17;;;;;;;4.88;4.20;;;;;;;;;;5049967;28;20179;-64
2022/03/08 12:24:02;;;;;;;4.47;4.05;;;;;;;;;;5066398;28;20043;-64
2022/03/08 12:30:13;;;;;;;4.10;3.70;;;;;;;;;;5089816;28;20090;-65
2022/03/08 12:32:47;;;;;;;5.10;4.30;;;;;;;;;;5094610;28;20403;-66
2022/03/08 12:35:16;;;;;;;4.55;4.15;;;;;;;;;;5076105;28;20070;-64
2022/03/08 12:38:03;;;;;;;4.45;4.07;;;;;;;;;;5074635;28;20139;-66
2022/03/08 12:40:43;;;;;;;3.65;3.35;;;;;;;;;;5084530;28;20084;-65
2022/03/08 12:46:32;;;;;;;4.20;3.80;;;;;;;;;;5091963;28;20065;-64
2022/03/08 12:48:58;;;;;;;4.22;3.83;;;;;;;;;;5095097;28;20037;-65
2022/03/08 12:51:24;;;;;;;4.57;4.15;;;;;;;;;;5102955;28;20036;-65
2022/03/08 12:53:57;;;;;;;5.15;4.05;;;;;;;;;;5102258;28;20035;-65
2022/03/08 12:56:24;;;;;;;4.53;4.13;;;;;;;;;;5093158;28;20047;-64
2022/03/08 12:58:50;;;;;;;5.38;4.00;;;;;;;;;;5107545;28;20324;-64
2022/03/08 13:01:17;;;;;;;3.97;3.58;;;;;;;;;;5058489;28;20046;-65
2022/03/08 13:03:44;;;;;;;4.40;4.00;;;;;;;;;;5072803;28;20085;-64
2022/03/08 13:06:11;;;;;;;5.13;4.07;;;;;;;;;;5091694;28;20040;-63
2022/03/08 13:08:39;;;;;;;4.28;3.97;;;;;;;;;;5064740;28;20062;-63
2022/03/08 13:11:09;;;;;;;4.85;4.20;;;;;;;;;;5049323;28;20071;-64
2022/03/08 13:13:39;;;;;;;4.82;4.32;;;;;;;;;;5105512;28;20037;-64
2022/03/08 13:16:06;;;;;;;4.60;4.20;;;;;;;;;;5092183;28;20496;-64
2022/03/08 13:18:36;;;;;;;7.80;7.30;;;;;;;;;;5104409;28;20035;-64
2022/03/08 13:21:03;;;;;;;5.25;4.85;;;;;;;;;;5111876;28;20035;-64
2022/03/08 13:23:38;;;;;;;5.38;4.88;;;;;;;;;;5111417;28;20115;-63
2022/03/08 13:26:05;;;;;;;7.68;5.65;;;;;;;;;;5090502;28;20123;-64
2022/03/08 13:28:32;;;;;;;5.78;4.95;;;;;;;;;;5096772;28;20039;-64
2022/03/08 13:31:04;;;;;;;5.15;4.75;;;;;;;;;;5091486;28;20038;-64
2022/03/08 13:33:30;;;;;;;5.35;4.85;;;;;;;;;;5095296;28;20039;-64
2022/03/08 13:36:00;;;;;;;6.13;5.45;;;;;;;;;;5102394;28;20369;-64
2022/03/08 13:38:31;;;;;;;5.55;5.05;;;;;;;;;;5097831;28;20039;-64
2022/03/08 13:40:58;;;;;;;6.45;5.10;;;;;;;;;;5098846;28;20040;-64
2022/03/08 13:43:25;;;;;;;5.43;4.88;;;;;;;;;;5095114;28;20032;-64
2022/03/08 13:45:52;;;;;;;5.47;5.03;;;;;;;;;;5092753;28;20039;-64
2022/03/08 13:48:22;;;;;;;4.93;4.43;;;;;;;;;;5100535;28;20077;-65
2022/03/08 13:50:49;;;;;;;4.72;4.20;;;;;;;;;;5105558;28;20071;-66
2022/03/08 13:53:16;;;;;;;5.15;4.05;;;;;;;;;;5111474;28;20038;-65
2022/03/08 13:55:43;;;;;;;5.60;4.25;;;;;;;;;;5073895;28;20183;-64
2022/03/08 13:58:14;;;;;;;4.78;3.85;;;;;;;;;;5085467;28;20040;-64
2022/03/08 14:00:40;;;;;;;5.72;4.85;;;;;;;;;;5108562;28;20476;-63
2022/03/08 14:03:07;;;;;;;4.97;4.43;;;;;;;;;;5112595;28;20046;-64
2022/03/08 14:05:51;;;;;;;4.65;4.25;;;;;;;;;;5092535;28;20389;-65
2022/03/08 14:08:34;;;;;;;4.57;4.18;;;;;;;;;;5092893;28;20560;-65
2022/03/08 14:11:05;;;;;;;4.18;3.78;;;;;;;;;;5088406;28;20039;-67
2022/03/08 14:13:34;;;;;;;4.28;3.88;;;;;;;;;;5105997;28;20054;-65
2022/03/08 14:16:02;;;;;;;4.10;3.70;;;;;;;;;;5092753;28;20063;-66
2022/03/08 14:18:28;;;;;;;4.53;4.07;;;;;;;;;;5093146;28;20106;-65
2022/03/08 14:20:55;;;;;;;4.32;3.92;;;;;;;;;;5092368;28;20047;-63
2022/03/08 14:23:23;;;;;;;5.53;3.75;;;;;;;;;;5092359;28;20058;-64
2022/03/08 14:26:00;;;;;;;6.03;4.10;;;;;;;;;;5092314;28;20040;-65
2022/03/08 14:28:45;;;;;;;5.60;3.60;;;;;;;;;;5092551;28;20361;-64
2022/03/08 14:31:31;;;;;;;10.45;4.20;;;;;;;;;;5092477;28;20064;-64
2022/03/08 14:34:10;;;;;;;4.43;3.80;;;;;;;;;;5092079;28;20036;-65
2022/03/08 14:36:39;;;;;;;4.00;3.70;;;;;;;;;;5092896;28;20047;-64
2022/03/08 14:39:22;;;;;;;4.38;3.92;;;;;;;;;;5092829;28;20045;-68
2022/03/08 14:42:14;;;;;;;4.43;3.90;;;;;;;;;;5085445;28;20040;-64
2022/03/08 14:44:45;;;;;;;4.93;4.45;;;;;;;;;;5054598;28;20118;-66
2022/03/08 14:47:13;;;;;;;4.75;4.20;;;;;;;;;;5074131;28;20490;-65
2022/03/08 14:49:40;;;;;;;5.82;4.45;;;;;;;;;;5076917;28;20100;-67
2022/03/08 14:52:15;;;;;;;4.75;4.35;;;;;;;;;;5058618;28;20048;-65
2022/03/08 14:54:41;;;;;;;5.90;5.10;;;;;;;;;;5076715;28;20068;-66
2022/03/08 14:57:07;;;;;;;5.20;4.50;;;;;;;;;;5076962;28;20393;-68
2022/03/08 14:59:34;;;;;;;5.20;4.70;;;;;;;;;;5041539;28;20040;-65
2022/03/08 15:02:00;;;;;;;4.50;4.10;;;;;;;;;;5087290;28;20040;-67
2022/03/08 15:04:26;;;;;;;4.82;4.43;;;;;;;;;;5090836;28;20044;-66
2022/03/08 15:06:52;;;;;;;4.90;4.50;;;;;;;;;;5091157;28;20050;-67
2022/03/08 15:09:18;;;;;;;6.50;4.72;;;;;;;;;;5088648;28;20577;-67
2022/03/08 15:11:45;;;;;;;5.20;4.80;;;;;;;;;;5085439;28;20131;-68
2022/03/08 15:14:11;;;;;;;5.03;4.53;;;;;;;;;;5083106;28;20044;-67
2022/03/08 15:16:37;;;;;;;5.45;4.95;;;;;;;;;;5087275;28;20035;-68
2022/03/08 15:19:04;;;;;;;5.40;4.90;;;;;;;;;;5062939;28;20094;-67
2022/03/08 15:21:31;;;;;;;5.93;5.43;;;;;;;;;;5089938;28;20031;-65
2022/03/08 15:23:58;;;;;;;5.35;4.85;;;;;;;;;;5058240;28;20028;-66
2022/03/08 15:26:26;;;;;;;5.20;4.80;;;;;;;;;;5094871;28;20048;-65
2022/03/08 15:28:52;;;;;;;5.60;4.85;;;;;;;;;;5095212;28;20488;-68
2022/03/08 15:31:19;;;;;;;5.45;4.95;;;;;;;;;;5060489;28;20108;-65
2022/03/08 15:33:45;;;;;;;5.10;4.63;;;;;;;;;;5094577;28;20043;-62
2022/03/08 15:36:12;;;;;;;6.63;4.50;;;;;;;;;;5098665;28;20067;-64
2022/03/08 15:38:38;;;;;;;5.57;4.60;;;;;;;;;;5095244;28;20040;-64
2022/03/08 15:41:05;;;;;;;5.28;4.75;;;;;;;;;;5094872;28;20175;-63
2022/03/08 15:43:31;;;;;;;5.20;4.55;;;;;;;;;;5092139;28;20044;-63
2022/03/08 15:45:57;;;;;;;5.07;4.57;;;;;;;;;;5090974;28;20123;-63
2022/03/08 15:48:24;;;;;;;6.30;5.25;;;;;;;;;;5095007;28;20377;-63
2022/03/08 15:50:50;;;;;;;6.68;4.65;;;;;;;;;;5102633;28;20040;-64